Time;durP1;ratioP1;P1;durP2;ratioP2;P2;SDS_P1;SDS_P2;PMS_P1;PMS_P2;Temp;Humidity;BMP_temperature;BMP_pressure;BME280_temperature;BME280_humidity;BME280_pressure;Samples;Min_cycle;Max_cycle;Signal;HPM_P1;HPM_P2
2024/01/01 00:01:25;;;;;;;16.52;10.18;;;14.10;96.70;;;;;;4926097;29;20095;-72
2024/01/01 00:03:56;;;;;;;17.35;10.80;;;14.20;96.70;;;;;;4911533;29;20067;-72
2024/01/01 00:06:25;;;;;;;14.73;8.85;;;14.20;96.70;;;;;;4922004;29;20056;-72
2024/01/01 00:08:56;;;;;;;12.40;8.32;;;14.20;96.70;;;;;;4925521;29;20543;-72
2024/01/01 00:11:24;;;;;;;14.95;9.15;;;14.20;96.70;;;;;;4922222;29;20143;-71
2024/01/01 00:13:53;;;;;;;11.52;7.55;;;14.20;96.70;;;;;;4927713;29;20424;-71
2024/01/01 00:16:21;;;;;;;12.77;7.13;;;14.20;96.70;;;;;;4927169;29;20063;-71
2024/01/01 00:18:52;;;;;;;13.82;6.55;;;14.20;96.70;;;;;;4920912;29;20151;-72
2024/01/01 00:21:23;;;;;;;13.35;6.68;;;14.20;96.70;;;;;;4909856;29;20056;-71
2024/01/01 00:23:51;;;;;;;14.50;6.40;;;14.20;96.70;;;;;;4909674;29;20162;-72
2024/01/01 00:26:24;;;;;;;14.48;5.32;;;14.20;96.70;;;;;;4910045;29;20051;-72
2024/01/01 00:29:02;;;;;;;19.08;5.07;;;14.20;96.70;;;;;;4892690;29;20699;-70
2024/01/01 00:31:31;;;;;;;13.70;4.82;;;14.10;96.70;;;;;;4909402;29;20079;-72
2024/01/01 00:34:01;;;;;;;11.93;4.95;;;14.10;96.70;;;;;;4909751;29;20060;-72
2024/01/01 00:36:35;;;;;;;12.93;5.03;;;14.10;96.70;;;;;;4886920;29;20150;-72
2024/01/01 00:39:06;;;;;;;15.52;4.88;;;14.00;96.70;;;;;;4910179;29;20155;-72
2024/01/01 00:41:36;;;;;;;16.27;5.20;;;14.00;96.70;;;;;;4911764;29;20139;-71
2024/01/01 00:44:05;;;;;;;12.27;4.20;;;14.00;96.70;;;;;;4907919;29;20119;-72
2024/01/01 00:46:35;;;;;;;14.75;5.25;;;13.90;96.70;;;;;;4907892;29;20059;-72
2024/01/01 00:49:03;;;;;;;13.75;4.90;;;13.90;96.70;;;;;;4908636;29;20064;-72
2024/01/01 00:51:36;;;;;;;14.80;5.40;;;13.90;96.70;;;;;;4910314;29;20071;-72
2024/01/01 00:54:05;;;;;;;20.42;5.10;;;13.80;96.70;;;;;;4892861;29;20085;-72
2024/01/01 00:56:34;;;;;;;12.48;4.10;;;13.80;96.70;;;;;;4909295;29;20067;-72
2024/01/01 00:59:03;;;;;;;14.57;4.72;;;13.80;96.70;;;;;;4892104;29;20477;-70
2024/01/01 01:01:32;;;;;;;14.88;3.90;;;13.90;96.70;;;;;;4908404;29;20489;-72
2024/01/01 01:04:03;;;;;;;14.30;4.05;;;13.90;96.70;;;;;;4908128;29;20139;-71
2024/01/01 01:06:35;;;;;;;16.52;4.57;;;14.00;96.70;;;;;;4904686;29;20075;-72
2024/01/01 01:09:08;;;;;;;11.95;4.13;;;13.90;96.70;;;;;;4891517;29;20522;-72
2024/01/01 01:11:38;;;;;;;12.52;3.72;;;14.00;96.70;;;;;;4908123;29;20048;-70
2024/01/01 01:14:15;;;;;;;17.27;3.60;;;14.00;96.70;;;;;;4891825;29;20060;-70
2024/01/01 01:17:08;;;;;;;12.32;3.72;;;14.00;96.70;;;;;;4899671;29;20067;-71
2024/01/01 01:19:36;;;;;;;13.63;3.85;;;14.10;96.70;;;;;;4913582;29;20064;-73
2024/01/01 01:22:08;;;;;;;13.02;3.67;;;14.10;96.70;;;;;;4934331;29;20075;-72
2024/01/01 01:24:37;;;;;;;14.73;3.72;;;14.20;96.70;;;;;;4913433;29;20063;-73
2024/01/01 01:27:06;;;;;;;11.52;3.65;;;14.20;96.70;;;;;;4928379;29;20485;-71
2024/01/01 01:29:36;;;;;;;14.27;3.55;;;14.10;96.70;;;;;;4910998;29;20063;-73
2024/01/01 01:32:05;;;;;;;7.57;3.65;;;14.00;96.70;;;;;;4927837;29;20181;-73
2024/01/01 01:34:35;;;;;;;9.73;3.33;;;14.00;96.70;;;;;;4926543;29;20071;-73
2024/01/01 01:37:03;;;;;;;16.10;4.18;;;14.00;96.70;;;;;;4910704;29;20139;-74
2024/01/01 01:39:35;;;;;;;12.30;3.60;;;14.00;96.70;;;;;;4910440;29;20078;-72
2024/01/01 01:42:06;;;;;;;12.75;3.38;;;14.00;96.70;;;;;;4926937;29;20070;-72
2024/01/01 01:44:35;;;;;;;14.63;3.53;;;13.90;96.70;;;;;;4911029;29;20096;-73
2024/01/01 01:47:04;;;;;;;13.73;3.72;;;13.90;96.70;;;;;;4923274;29;20067;-73
2024/01/01 01:49:35;;;;;;;12.65;3.80;;;13.90;96.70;;;;;;4928906;29;20508;-73
2024/01/01 01:52:06;;;;;;;11.63;3.40;;;13.90;96.70;;;;;;4927692;29;20516;-73
2024/01/01 01:54:36;;;;;;;10.93;3.65;;;13.90;96.70;;;;;;4931584;29;20750;-71
2024/01/01 01:57:08;;;;;;;12.75;3.47;;;13.90;96.70;;;;;;4930228;29;20195;-73
2024/01/01 01:59:37;;;;;;;9.65;3.00;;;13.90;96.70;;;;;;4914410;29;20142;-73
2024/01/01 02:02:07;;;;;;;13.98;3.25;;;13.90;96.70;;;;;;4929558;29;20055;-73
2024/01/01 02:04:38;;;;;;;14.73;2.65;;;13.90;96.70;;;;;;4930963;29;20572;-72
2024/01/01 02:07:07;;;;;;;12.43;2.95;;;13.80;96.70;;;;;;4930051;29;20071;-73
2024/01/01 02:09:39;;;;;;;12.20;3.05;;;13.80;96.70;;;;;;4914061;29;20059;-73
2024/01/01 02:12:09;;;;;;;11.65;3.30;;;13.70;96.70;;;;;;4914588;29;20051;-73
2024/01/01 02:14:38;;;;;;;9.27;2.70;;;13.70;96.70;;;;;;4931719;29;20869;-72
2024/01/01 02:17:06;;;;;;;14.75;3.60;;;13.60;96.70;;;;;;4914908;29;20051;-72
2024/01/01 02:19:35;;;;;;;13.48;2.67;;;13.60;96.70;;;;;;4930366;29;20052;-72
2024/01/01 02:22:06;;;;;;;12.65;3.58;;;13.60;96.70;;;;;;4928464;29;20059;-73
2024/01/01 02:24:37;;;;;;;11.32;2.67;;;13.50;96.70;;;;;;4929454;29;20082;-73
2024/01/01 02:27:06;;;;;;;18.60;3.10;;;13.50;96.70;;;;;;4921434;29;20064;-72
2024/01/01 02:29:36;;;;;;;11.77;3.10;;;13.50;96.70;;;;;;4911894;29;20059;-73
2024/01/01 02:32:06;;;;;;;11.02;2.58;;;13.50;96.70;;;;;;4927995;29;20138;-73
2024/01/01 02:34:34;;;;;;;13.68;3.05;;;13.40;96.70;;;;;;4927926;29;20084;-73
2024/01/01 02:37:03;;;;;;;9.10;2.20;;;13.40;96.70;;;;;;4912543;29;20369;-73
2024/01/01 02:39:31;;;;;;;11.02;2.78;;;13.40;96.70;;;;;;4920636;29;20059;-73
2024/01/01 02:42:03;;;;;;;13.65;2.78;;;13.30;96.70;;;;;;4913031;29;20056;-72
2024/01/01 02:44:34;;;;;;;16.13;3.22;;;13.30;96.70;;;;;;4911998;29;20094;-72
2024/01/01 02:47:03;;;;;;;16.73;2.72;;;13.30;96.70;;;;;;4910267;29;20055;-73
2024/01/01 02:49:33;;;;;;;12.60;2.47;;;13.30;96.70;;;;;;4912009;29;20525;-73
2024/01/01 02:52:03;;;;;;;9.85;2.28;;;13.30;96.70;;;;;;4927715;29;20132;-73
2024/01/01 02:54:31;;;;;;;14.00;2.33;;;13.30;96.70;;;;;;4912144;29;20856;-73
2024/01/01 02:56:59;;;;;;;12.27;2.90;;;13.30;96.70;;;;;;4911518;29;20059;-73
2024/01/01 02:59:30;;;;;;;14.88;2.33;;;13.30;96.70;;;;;;4914101;29;20070;-73
2024/01/01 03:01:58;;;;;;;13.52;2.85;;;13.30;96.70;;;;;;4911907;29;20596;-72
2024/01/01 03:04:28;;;;;;;14.75;2.58;;;13.30;96.70;;;;;;4920429;29;20202;-73
2024/01/01 03:06:57;;;;;;;10.90;1.80;;;13.20;96.70;;;;;;4913858;29;20066;-73
2024/01/01 03:09:27;;;;;;;12.70;2.35;;;13.20;96.70;;;;;;4911053;29;20056;-73
2024/01/01 03:11:56;;;;;;;15.77;2.70;;;13.20;96.70;;;;;;4911542;29;20089;-73
2024/01/01 03:14:25;;;;;;;12.95;2.33;;;13.20;96.70;;;;;;4911569;29;20068;-73
2024/01/01 03:16:56;;;;;;;10.15;1.73;;;13.20;96.70;;;;;;4912254;29;20055;-73
2024/01/01 03:19:25;;;;;;;12.95;2.10;;;13.20;96.70;;;;;;4868463;29;1733689;-73
2024/01/01 03:21:55;;;;;;;9.85;1.95;;;13.20;96.70;;;;;;4930402;29;20062;-73
2024/01/01 03:24:24;;;;;;;11.63;2.30;;;13.20;96.70;;;;;;4928562;29;20062;-73
2024/01/01 03:26:53;;;;;;;11.55;2.38;;;13.20;96.70;;;;;;4912642;29;20154;-73
2024/01/01 03:29:22;;;;;;;12.05;2.17;;;13.20;96.70;;;;;;4929803;29;20103;-73
2024/01/01 03:31:51;;;;;;;12.80;2.63;;;13.20;96.70;;;;;;4930112;29;20052;-73
2024/01/01 03:34:23;;;;;;;11.10;2.22;;;13.20;96.70;;;;;;4912676;29;20079;-73
2024/01/01 03:36:55;;;;;;;9.18;2.22;;;13.20;96.70;;;;;;4912213;29;20067;-73
2024/01/01 03:39:27;;;;;;;6.32;2.10;;;13.20;96.70;;;;;;4928279;29;20093;-73
2024/01/01 03:41:57;;;;;;;11.07;2.45;;;13.20;96.70;;;;;;4930385;29;20509;-73
2024/01/01 03:44:26;;;;;;;10.07;2.20;;;13.10;96.70;;;;;;4929710;29;20138;-73
2024/01/01 03:46:54;;;;;;;10.85;2.03;;;13.10;96.70;;;;;;4929894;29;20059;-73
2024/01/01 03:49:25;;;;;;;10.55;2.00;;;13.10;96.70;;;;;;4926316;29;20059;-73
2024/01/01 03:51:54;;;;;;;8.60;1.88;;;13.10;96.70;;;;;;4928900;29;20568;-73
2024/01/01 03:54:23;;;;;;;10.75;2.28;;;13.10;96.70;;;;;;4928592;29;20064;-73
2024/01/01 03:56:52;;;;;;;9.32;2.15;;;13.00;96.70;;;;;;4927814;29;20060;-73
2024/01/01 03:59:21;;;;;;;7.68;1.67;;;13.00;96.70;;;;;;4929014;29;20162;-73
2024/01/01 04:01:50;;;;;;;6.85;1.70;;;13.00;96.70;;;;;;4929382;29;20166;-73
2024/01/01 04:04:19;;;;;;;4.38;1.38;;;12.90;96.70;;;;;;4912074;29;20063;-73
2024/01/01 04:06:50;;;;;;;10.10;1.50;;;12.90;96.70;;;;;;4929282;29;20090;-73
2024/01/01 04:09:20;;;;;;;12.88;2.28;;;12.90;96.70;;;;;;4913994;29;20142;-74
2024/01/01 04:11:48;;;;;;;6.53;1.70;;;12.80;96.70;;;;;;4929287;29;20074;-73
2024/01/01 04:14:17;;;;;;;10.57;1.95;;;12.80;96.70;;;;;;4928409;29;20059;-73
2024/01/01 04:16:46;;;;;;;11.68;1.92;;;12.70;96.70;;;;;;4927917;29;20064;-73
2024/01/01 04:19:18;;;;;;;6.00;1.60;;;12.70;96.70;;;;;;4926600;29;20087;-71
2024/01/01 04:22:28;;;;;;;10.40;1.85;;;12.70;96.70;;;;;;4920310;29;20066;-71
2024/01/01 04:25:18;;;;;;;12.95;1.67;;;12.70;96.70;;;;;;4928907;29;20063;-71
2024/01/01 04:27:47;;;;;;;6.78;1.58;;;12.70;96.70;;;;;;4929384;29;20139;-71
2024/01/01 04:30:17;;;;;;;8.48;1.83;;;12.70;96.70;;;;;;4909897;29;20059;-72
2024/01/01 04:36:47;;;;;;;7.63;1.30;;;12.70;96.70;;;;;;4919947;29;20055;-71
2024/01/01 04:39:37;;;;;;;8.20;1.70;;;12.70;96.70;;;;;;4921921;29;20671;-71
2024/01/01 04:42:06;;;;;;;10.90;2.20;;;12.70;96.70;;;;;;4928493;29;20190;-72
2024/01/01 04:44:36;;;;;;;7.68;1.25;;;12.60;96.70;;;;;;4920453;29;20473;-71
2024/01/01 04:47:05;;;;;;;10.30;1.42;;;12.60;96.70;;;;;;4928273;29;20468;-71
2024/01/01 04:49:34;;;;;;;10.10;1.77;;;12.60;96.70;;;;;;4928257;29;20075;-72
2024/01/01 04:52:06;;;;;;;6.80;1.48;;;12.50;96.70;;;;;;4931658;29;20147;-72
2024/01/01 04:54:39;;;;;;;4.43;1.48;;;12.50;96.70;;;;;;4911342;29;20074;-71
2024/01/01 04:57:08;;;;;;;11.02;1.80;;;12.50;96.70;;;;;;4920547;29;20417;-72
2024/01/01 04:59:40;;;;;;;5.15;1.10;;;12.40;96.70;;;;;;4918585;29;20062;-71
2024/01/01 05:02:12;;;;;;;7.53;1.60;;;12.40;96.70;;;;;;4908353;29;20445;-71
2024/01/01 05:08:10;;;;;;;9.30;1.80;;;12.40;96.70;;;;;;4906820;29;20059;-71
2024/01/01 05:10:42;;;;;;;8.73;1.40;;;12.50;96.70;;;;;;4912645;29;20091;-71
2024/01/01 05:13:15;;;;;;;9.30;1.30;;;12.50;96.70;;;;;;4927497;29;20110;-72
2024/01/01 05:15:48;;;;;;;6.07;1.15;;;12.50;96.70;;;;;;4909617;29;20070;-71
2024/01/01 05:18:17;;;;;;;9.57;1.52;;;12.40;96.70;;;;;;4914843;29;20058;-71
2024/01/01 05:20:49;;;;;;;5.50;1.30;;;12.30;96.70;;;;;;4928261;29;20082;-72
2024/01/01 05:23:36;;;;;;;7.40;1.60;;;12.30;96.70;;;;;;4918053;29;20497;-71
2024/01/01 05:26:19;;;;;;;7.70;1.20;;;12.30;96.70;;;;;;4928492;29;20322;-72
2024/01/01 05:28:48;;;;;;;9.38;1.77;;;12.30;96.70;;;;;;4925216;29;20066;-72
2024/01/01 05:31:45;;;;;;;10.32;1.50;;;12.20;96.70;;;;;;4926812;29;20059;-72
2024/01/01 05:34:31;;;;;;;;;;;;;;;;;;;;;
2024/01/01 05:38:14;;;;;;;7.90;1.65;;;12.20;96.70;;;;;;4869797;29;20108;-72
2024/01/01 05:40:53;;;;;;;5.72;1.10;;;12.30;96.70;;;;;;4873252;29;20057;-72
2024/01/01 05:43:26;;;;;;;5.28;1.30;;;12.30;96.70;;;;;;4868624;29;20061;-72
2024/01/01 05:46:02;;;;;;;9.68;2.28;;;12.30;96.70;;;;;;4870413;29;20072;-72
2024/01/01 05:48:33;;;;;;;39.63;17.33;;;12.30;96.70;;;;;;4856436;29;20069;-72
2024/01/01 05:51:09;;;;;;;14.93;2.92;;;12.30;96.70;;;;;;4864521;29;20149;-73
2024/01/01 05:53:38;;;;;;;9.32;2.50;;;12.30;96.70;;;;;;4876786;29;20057;-71
2024/01/01 05:56:47;;;;;;;9.30;1.85;;;12.30;96.70;;;;;;4870090;29;20057;-71
2024/01/01 05:59:28;;;;;;;16.45;5.47;;;12.30;96.70;;;;;;4871688;29;20064;-72
2024/01/01 06:01:57;;;;;;;9.00;3.28;;;12.30;96.70;;;;;;4870486;29;20638;-71
2024/01/01 06:04:47;;;;;;;13.48;2.90;;;12.20;96.70;;;;;;4870819;29;20626;-71
2024/01/01 06:07:16;;;;;;;12.25;2.60;;;12.20;96.70;;;;;;4869506;29;20144;-71
2024/01/01 06:09:45;;;;;;;9.57;1.92;;;12.20;96.70;;;;;;4871734;29;20053;-72
2024/01/01 06:12:23;;;;;;;9.13;1.90;;;12.20;96.70;;;;;;4863791;29;20064;-71
2024/01/01 06:18:54;;;;;;;11.43;3.83;;;12.10;96.70;;;;;;4914796;29;20135;-71
2024/01/01 06:21:26;;;;;;;13.00;2.50;;;12.10;96.70;;;;;;4923099;29;20068;-71
2024/01/01 06:23:55;;;;;;;8.98;2.00;;;12.10;96.70;;;;;;4930061;29;20051;-71
2024/01/01 06:26:24;;;;;;;10.32;2.42;;;12.10;96.70;;;;;;4925691;29;20450;-71
2024/01/01 06:29:33;;;;;;;12.98;2.35;;;12.10;96.70;;;;;;4912822;29;20062;-72
2024/01/01 06:32:03;;;;;;;5.90;1.58;;;12.10;96.70;;;;;;4930882;29;20056;-71
2024/01/01 06:34:43;;;;;;;;;;;;;;;;;;;;;
2024/01/01 06:37:57;;;;;;;13.23;2.58;;;12.10;96.70;;;;;;4900360;29;20070;-72
2024/01/01 06:43:41;;;;;;;9.48;4.70;;;12.00;96.70;;;;;;4908740;29;20098;-71
2024/01/01 06:46:18;;;;;;;8.45;2.05;;;12.00;96.70;;;;;;4911170;29;20429;-71
2024/01/01 06:48:47;;;;;;;11.70;2.25;;;12.00;96.70;;;;;;4927590;29;20056;-71
2024/01/01 06:51:23;;;;;;;12.05;2.70;;;12.00;96.70;;;;;;4926293;29;20172;-71
2024/01/01 06:54:24;;;;;;;7.03;1.90;;;12.00;96.70;;;;;;4928744;29;20063;-71
2024/01/01 06:58:01;;;;;;;12.25;2.58;;;12.00;96.70;;;;;;4913308;29;20067;-71
2024/01/01 07:00:43;;;;;;;11.23;1.80;;;12.00;96.70;;;;;;4913965;29;20110;-71
2024/01/01 07:03:15;;;;;;;9.57;1.40;;;12.10;96.70;;;;;;4928105;29;20043;-71
2024/01/01 07:05:44;;;;;;;8.55;1.63;;;12.10;96.70;;;;;;4913710;29;20119;-71
2024/01/01 07:08:36;;;;;;;7.32;1.45;;;12.10;96.70;;;;;;4917088;29;20070;-72
2024/01/01 07:11:18;;;;;;;7.65;1.67;;;12.10;96.70;;;;;;4929745;29;20170;-72
2024/01/01 07:13:57;;;;;;;8.70;1.80;;;12.10;96.70;;;;;;4915490;29;20064;-72
2024/01/01 07:16:27;;;;;;;6.65;1.65;;;12.00;96.70;;;;;;4928920;29;20334;-71
2024/01/01 07:19:10;;;;;;;9.10;2.20;;;12.00;96.70;;;;;;4930096;29;20058;-71
2024/01/01 07:21:59;;;;;;;8.70;2.17;;;12.00;96.70;;;;;;4915928;29;20051;-72
2024/01/01 07:36:30;;;;;;;6.43;1.80;;;12.00;96.70;;;;;;4784282;29;20703;-71
2024/01/01 07:39:39;;;;;;;7.93;2.17;;;11.90;96.70;;;;;;4838875;29;20111;-71
2024/01/01 07:42:08;;;;;;;9.05;2.58;;;11.90;96.70;;;;;;4774226;29;20522;-72
2024/01/01 07:44:37;;;;;;;8.20;2.42;;;11.90;96.70;;;;;;4775523;29;20530;-71
2024/01/01 07:47:08;;;;;;;7.05;2.08;;;11.90;96.70;;;;;;4775238;29;20426;-71
2024/01/01 07:49:37;;;;;;;9.18;2.10;;;12.00;96.70;;;;;;4780144;29;20830;-72
2024/01/01 07:52:32;;;;;;;9.98;2.25;;;12.00;96.70;;;;;;4776239;29;20824;-71
2024/01/01 07:55:03;;;;;;;8.27;1.83;;;12.10;96.70;;;;;;4778240;29;20063;-72
2024/01/01 07:58:36;;;;;;;6.60;1.50;;;12.10;96.70;;;;;;4772845;29;20062;-72
2024/01/01 08:02:03;;;;;;;9.65;2.05;;;12.20;96.70;;;;;;4801859;29;21324;-71
2024/01/01 08:04:47;;;;;;;11.80;2.92;;;12.20;96.70;;;;;;4878913;29;20079;-72
2024/01/01 08:07:23;;;;;;;7.40;2.28;;;12.30;96.70;;;;;;4911306;29;20064;-72
2024/01/01 08:09:54;;;;;;;8.60;2.72;;;12.30;96.70;;;;;;4911221;29;20687;-72
2024/01/01 08:12:26;;;;;;;11.18;3.78;;;12.30;96.70;;;;;;4927388;29;20059;-72
2024/01/01 08:15:03;;;;;;;8.27;3.17;;;12.30;96.70;;;;;;4928819;29;21223;-71
2024/01/01 08:17:41;;;;;;;7.40;2.97;;;12.30;96.70;;;;;;4923781;29;20849;-71
2024/01/01 08:20:26;;;;;;;8.10;2.65;;;12.40;96.70;;;;;;4920488;29;20482;-71
2024/01/01 08:22:55;;;;;;;7.05;2.90;;;12.40;96.70;;;;;;4909416;29;20734;-71
2024/01/01 08:25:25;;;;;;;9.60;3.10;;;12.50;96.70;;;;;;4924285;29;20591;-72
2024/01/01 08:28:15;;;;;;;12.27;3.97;;;12.50;96.70;;;;;;4912031;29;20110;-72
2024/01/01 08:31:10;;;;;;;9.02;3.78;;;12.60;96.70;;;;;;4929020;29;20150;-71
2024/01/01 08:33:39;;;;;;;9.88;4.80;;;12.50;96.70;;;;;;4919800;29;20509;-72
2024/01/01 08:36:08;;;;;;;8.93;3.72;;;12.50;96.70;;;;;;4920329;29;20055;-72
2024/01/01 08:38:41;;;;;;;13.13;4.43;;;12.50;96.70;;;;;;4920375;29;20958;-72
2024/01/01 08:41:11;;;;;;;9.05;4.60;;;12.50;96.70;;;;;;4924938;29;20063;-72
2024/01/01 08:44:46;;;;;;;8.30;4.60;;;12.60;96.70;;;;;;4918822;29;20063;-71
2024/01/01 08:47:15;;;;;;;9.63;4.38;;;12.60;96.70;;;;;;4924712;29;20059;-71
2024/01/01 08:49:44;;;;;;;10.02;3.97;;;12.70;96.70;;;;;;4911153;29;20127;-72
2024/01/01 08:52:14;;;;;;;10.55;3.72;;;12.70;96.70;;;;;;4921477;29;20070;-72
2024/01/01 08:54:43;;;;;;;10.93;3.63;;;12.80;96.70;;;;;;4926948;29;20059;-72
2024/01/01 08:57:16;;;;;;;10.30;3.97;;;12.80;96.70;;;;;;4919645;29;20074;-72
2024/01/01 08:59:45;;;;;;;9.88;3.22;;;12.80;96.70;;;;;;4920321;29;20843;-71
2024/01/01 09:02:15;;;;;;;9.07;3.50;;;12.90;96.70;;;;;;4925570;29;20449;-72
2024/01/01 09:04:47;;;;;;;8.27;3.10;;;12.90;96.70;;;;;;4921979;29;20067;-72
2024/01/01 09:07:20;;;;;;;7.50;3.13;;;12.90;96.70;;;;;;4921453;29;20063;-72
2024/01/01 09:09:49;;;;;;;7.63;2.42;;;13.00;96.70;;;;;;4928333;29;20055;-72
2024/01/01 09:12:19;;;;;;;7.40;2.67;;;13.00;96.70;;;;;;4928674;29;20055;-72
2024/01/01 09:14:47;;;;;;;7.13;2.75;;;13.10;96.70;;;;;;4926406;29;20056;-72
2024/01/01 09:17:16;;;;;;;8.38;2.65;;;13.10;96.70;;;;;;4918923;29;20063;-72
2024/01/01 09:19:45;;;;;;;7.18;2.60;;;13.20;96.70;;;;;;4922248;29;20079;-72
2024/01/01 09:22:17;;;;;;;7.82;2.17;;;13.20;96.70;;;;;;4925342;29;20141;-72
2024/01/01 09:24:54;;;;;;;10.55;2.92;;;13.30;96.70;;;;;;4928857;29;20054;-71
2024/01/01 09:27:26;;;;;;;6.03;1.90;;;13.30;96.70;;;;;;4926588;29;20100;-71
2024/01/01 09:29:54;;;;;;;8.27;2.35;;;13.30;96.70;;;;;;4912780;29;20131;-71
2024/01/01 09:32:23;;;;;;;6.15;2.28;;;13.40;96.70;;;;;;4905755;29;20064;-71
2024/01/01 09:35:29;;;;;;;10.55;2.30;;;13.50;96.70;;;;;;4919385;29;20158;-71
2024/01/01 09:37:58;;;;;;;13.27;3.00;;;13.50;96.70;;;;;;4915241;29;20071;-71
2024/01/01 09:40:29;;;;;;;29.85;14.88;;;13.50;96.70;;;;;;4918239;29;20636;-72
2024/01/01 09:43:02;;;;;;;25.63;10.30;;;13.50;96.70;;;;;;4909657;29;20056;-72
2024/01/01 09:45:32;;;;;;;15.60;5.95;;;13.50;96.70;;;;;;4918087;29;20473;-71
2024/01/01 09:48:00;;;;;;;13.60;5.90;;;13.60;96.70;;;;;;4910609;29;20147;-71
2024/01/01 09:50:30;;;;;;;10.30;4.53;;;13.60;96.70;;;;;;4910709;29;20143;-72
2024/01/01 09:53:05;;;;;;;7.38;2.92;;;13.70;96.70;;;;;;4910660;29;20048;-72
2024/01/01 09:55:34;;;;;;;10.02;3.70;;;13.80;96.70;;;;;;4918585;29;20509;-72
2024/01/01 09:58:05;;;;;;;9.35;3.25;;;13.90;96.70;;;;;;4928154;29;20056;-72
2024/01/01 10:00:34;;;;;;;7.18;2.53;;;13.90;96.70;;;;;;4909693;29;20432;-71
2024/01/01 10:03:30;;;;;;;8.00;3.17;;;13.90;96.70;;;;;;4910191;29;20055;-71
2024/01/01 10:06:14;;;;;;;9.13;3.30;;;13.90;96.70;;;;;;4922481;29;20063;-72
2024/01/01 10:09:08;;;;;;;15.35;8.15;;;13.90;96.70;;;;;;4918374;29;20115;-72
2024/01/01 10:11:41;;;;;;;15.82;5.63;;;13.90;96.70;;;;;;4926583;29;20063;-71
2024/01/01 10:14:45;;;;;;;10.55;4.72;;;13.90;96.70;;;;;;4925459;29;20571;-72
2024/01/01 10:17:14;;;;;;;10.80;3.95;;;13.90;96.70;;;;;;4930203;29;20092;-72
2024/01/01 10:19:48;;;;;;;8.55;3.30;;;14.00;96.70;;;;;;4913362;29;20421;-71
2024/01/01 10:22:20;;;;;;;10.60;3.75;;;14.10;96.70;;;;;;4921778;29;20066;-72
2024/01/01 10:24:53;;;;;;;12.00;5.97;;;14.10;96.70;;;;;;4925323;29;20058;-71
2024/01/01 10:27:25;;;;;;;5.07;2.17;;;14.10;96.70;;;;;;4913980;29;20056;-71
2024/01/01 10:29:55;;;;;;;7.45;2.25;;;14.20;96.70;;;;;;4918389;29;20773;-71
2024/01/01 10:32:24;;;;;;;9.07;2.05;;;14.20;96.70;;;;;;4913391;29;20090;-71
2024/01/01 10:34:57;;;;;;;8.05;2.30;;;14.20;96.70;;;;;;4930366;29;20079;-72
2024/01/01 10:37:47;;;;;;;8.68;2.70;;;14.20;96.70;;;;;;4922080;29;20573;-72
2024/01/01 10:40:17;;;;;;;8.23;1.85;;;14.20;96.70;;;;;;4922821;29;20690;-71
2024/01/01 10:42:55;;;;;;;9.70;2.35;;;14.20;96.70;;;;;;4924887;29;20151;-72
2024/01/01 10:45:26;;;;;;;;;;;14.20;96.70;;;;;;4921777;29;20056;-72
2024/01/01 10:48:00;;;;;;;5.00;1.40;;;14.20;96.70;;;;;;4920722;29;20025;-72
2024/01/01 10:50:30;;;;;;;7.13;2.75;;;14.20;96.70;;;;;;4913462;29;20070;-71
2024/01/01 10:53:17;;;;;;;7.93;1.60;;;14.20;96.70;;;;;;4933490;29;20124;-72
2024/01/01 10:59:20;;;;;;;6.85;2.15;;;14.20;96.70;;;;;;4914057;29;20107;-71
2024/01/01 11:01:52;;;;;;;9.68;1.90;;;14.20;96.70;;;;;;4924405;29;20091;-71
2024/01/01 11:05:26;;;;;;;10.63;3.03;;;14.20;96.70;;;;;;4916696;29;20106;-71
2024/01/01 11:08:09;;;;;;;6.57;1.58;;;14.30;96.70;;;;;;4927609;29;20509;-71
2024/01/01 11:14:53;;;;;;;8.48;1.67;;;14.40;96.70;;;;;;4870826;29;20103;-72
2024/01/01 11:17:27;;;;;;;6.15;1.30;;;14.40;96.70;;;;;;4870941;29;20073;-72
2024/01/01 11:19:56;;;;;;;7.70;1.75;;;14.50;96.70;;;;;;4930269;29;20118;-72
2024/01/01 11:22:49;;;;;;;7.00;1.83;;;14.60;96.70;;;;;;4924909;29;20064;-72
2024/01/01 11:25:55;;;;;;;7.57;1.70;;;14.70;96.70;;;;;;4905624;29;20055;-72
2024/01/01 11:28:50;;;;;;;7.32;1.75;;;14.70;96.70;;;;;;4921054;29;20059;-71
2024/01/01 11:31:19;;;;;;;11.52;2.80;;;14.80;96.70;;;;;;4882849;29;20151;-71
2024/01/01 11:33:58;;;;;;;7.18;1.67;;;14.80;96.70;;;;;;4883118;29;20154;-72
2024/01/01 11:36:45;;;;;;;10.25;1.70;;;14.80;96.70;;;;;;4866664;29;20075;-72
2024/01/01 11:39:13;;;;;;;8.60;1.42;;;14.90;96.70;;;;;;4871473;29;20898;-71
2024/01/01 11:41:44;;;;;;;7.60;1.80;;;15.00;96.70;;;;;;4876431;29;20060;-72
2024/01/01 11:44:18;;;;;;;5.55;1.42;;;15.00;96.70;;;;;;4880613;29;20435;-71
2024/01/01 11:46:48;;;;;;;9.40;2.22;;;15.10;96.70;;;;;;4875963;29;20048;-72
2024/01/01 11:49:40;;;;;;;8.18;2.03;;;15.10;96.70;;;;;;4855873;29;20071;-71
2024/01/01 11:52:09;;;;;;;7.15;1.60;;;15.10;96.70;;;;;;4863259;29;20147;-71
2024/01/01 11:54:39;;;;;;;9.75;1.42;;;15.20;96.70;;;;;;4887191;29;20077;-72
2024/01/01 11:57:07;;;;;;;6.82;1.40;;;15.20;96.70;;;;;;4878342;29;20061;-71
2024/01/01 11:59:37;;;;;;;8.82;2.10;;;15.00;96.70;;;;;;4882190;29;20064;-71
2024/01/01 12:02:10;;;;;;;9.20;1.58;;;15.00;96.70;;;;;;4903289;29;20140;-71
2024/01/01 12:04:41;;;;;;;3.75;1.10;;;15.00;96.70;;;;;;4922573;29;20083;-72
2024/01/01 12:07:10;;;;;;;7.60;1.48;;;15.00;96.70;;;;;;4924820;29;20056;-71
2024/01/01 12:09:38;;;;;;;8.02;1.60;;;15.00;96.70;;;;;;4919803;29;20075;-71
2024/01/01 12:12:12;;;;;;;20.27;12.30;;;14.90;96.70;;;;;;4912112;29;20265;-71
2024/01/01 12:14:49;;;;;;;13.38;4.07;;;14.90;96.70;;;;;;4926080;29;20055;-71
2024/01/01 12:17:19;;;;;;;9.60;3.33;;;14.90;96.70;;;;;;4928774;29;20544;-71
2024/01/01 12:19:52;;;;;;;13.25;4.25;;;15.00;96.70;;;;;;4928492;29;20055;-71
2024/01/01 12:22:21;;;;;;;10.30;2.53;;;15.10;96.70;;;;;;4927869;29;20058;-71
2024/01/01 12:24:56;;;;;;;6.80;1.55;;;14.90;96.70;;;;;;4928859;29;20056;-71
2024/01/01 12:27:25;;;;;;;8.07;1.92;;;14.90;96.70;;;;;;4929216;29;20106;-72
2024/01/01 12:29:58;;;;;;;7.32;1.95;;;15.00;96.70;;;;;;4928969;29;20857;-71
2024/01/01 12:32:32;;;;;;;6.85;2.47;;;14.90;96.70;;;;;;4928895;29;20063;-71
2024/01/01 12:35:03;;;;;;;9.77;3.00;;;14.90;96.70;;;;;;4928232;29;20560;-71
2024/01/01 12:37:32;;;;;;;7.78;1.85;;;14.90;96.70;;;;;;4928739;29;20087;-72
2024/01/01 12:40:02;;;;;;;7.18;2.45;;;14.90;96.70;;;;;;4928725;29;20139;-72
2024/01/01 12:42:30;;;;;;;4.70;1.67;;;14.90;96.70;;;;;;4927700;29;20066;-71
2024/01/01 12:44:59;;;;;;;6.53;1.63;;;14.80;96.70;;;;;;4928901;29;20060;-72
2024/01/01 12:47:27;;;;;;;4.93;1.33;;;14.80;96.70;;;;;;4927945;29;20055;-71
2024/01/01 12:49:55;;;;;;;6.72;1.75;;;14.80;96.70;;;;;;4911216;29;20060;-72
2024/01/01 12:52:27;;;;;;;6.72;1.52;;;14.80;96.70;;;;;;4928166;29;20821;-72
2024/01/01 12:54:55;;;;;;;8.70;1.55;;;14.80;96.70;;;;;;4928186;29;20054;-72
2024/01/01 12:57:24;;;;;;;7.93;1.77;;;14.80;96.70;;;;;;4928584;29;20174;-72
2024/01/01 12:59:52;;;;;;;6.80;2.05;;;14.70;96.70;;;;;;4927875;29;20114;-71
2024/01/01 13:02:21;;;;;;;8.98;1.65;;;14.70;96.70;;;;;;4928273;29;20111;-71
2024/01/01 13:04:49;;;;;;;11.18;2.92;;;14.80;96.70;;;;;;4928318;29;20079;-72
2024/01/01 13:07:17;;;;;;;11.45;2.00;;;14.80;96.70;;;;;;4928647;29;20134;-71
2024/01/01 13:09:48;;;;;;;7.97;1.75;;;14.80;96.70;;;;;;4912000;29;20063;-71
2024/01/01 13:12:16;;;;;;;9.65;1.77;;;14.80;96.70;;;;;;4928487;29;20071;-71
2024/01/01 13:14:45;;;;;;;8.18;2.08;;;14.70;96.70;;;;;;4928114;29;20489;-72
2024/01/01 13:17:13;;;;;;;6.45;1.10;;;14.70;96.70;;;;;;4927830;29;20083;-72
2024/01/01 13:19:41;;;;;;;8.60;1.17;;;14.60;96.70;;;;;;4926818;29;20063;-71
2024/01/01 13:22:13;;;;;;;6.80;1.30;;;14.60;96.70;;;;;;4927824;29;20085;-72
2024/01/01 13:24:44;;;;;;;8.30;1.73;;;14.60;96.70;;;;;;4920279;29;20354;-71
2024/01/01 13:27:19;;;;;;;9.57;1.52;;;14.60;96.70;;;;;;4926651;29;20063;-72
2024/01/01 13:29:48;;;;;;;9.80;1.63;;;14.60;96.70;;;;;;4924719;29;20064;-71
2024/01/01 13:32:16;;;;;;;6.10;1.10;;;14.60;96.70;;;;;;4915321;29;20059;-72
2024/01/01 13:34:45;;;;;;;6.75;1.30;;;14.50;96.70;;;;;;4918165;29;20541;-72
2024/01/01 13:37:13;;;;;;;8.13;1.35;;;14.50;96.70;;;;;;4911181;29;20056;-71
2024/01/01 13:39:41;;;;;;;12.65;3.22;;;14.50;96.70;;;;;;4920121;29;20059;-71
2024/01/01 13:42:12;;;;;;;7.25;1.83;;;14.40;96.70;;;;;;4910722;29;20055;-72
2024/01/01 13:44:45;;;;;;;6.95;1.48;;;14.40;96.70;;;;;;4909801;29;20056;-72
2024/01/01 13:47:15;;;;;;;6.35;1.15;;;14.40;96.70;;;;;;4926103;29;20055;-71
2024/01/01 13:49:43;;;;;;;6.60;1.27;;;14.30;96.70;;;;;;4914339;29;20064;-72
2024/01/01 13:52:12;;;;;;;6.65;1.40;;;14.30;96.70;;;;;;4930157;29;20123;-72
2024/01/01 13:54:42;;;;;;;8.57;1.40;;;14.30;96.70;;;;;;4921631;29;20051;-72
2024/01/01 13:57:12;;;;;;;6.38;1.30;;;14.30;96.70;;;;;;4921345;29;20155;-71